sensor_id;sensor_type;location;lat;lon;timestamp;P1;durP1;ratioP1;P2;durP2;ratioP2
44774;SDS011;31340;51.402;0.016;2022-08-23T00:02:24;3.40;;;1.52;;
44774;SDS011;31340;51.402;0.016;2022-08-23T00:04:53;2.67;;;1.50;;
44774;SDS011;31340;51.402;0.016;2022-08-23T00:07:36;4.20;;;1.20;;
44774;SDS011;31340;51.402;0.016;2022-08-23T00:10:06;1.80;;;1.50;;
44774;SDS011;31340;51.402;0.016;2022-08-23T00:12:35;4.70;;;1.67;;
44774;SDS011;31340;51.402;0.016;2022-08-23T00:15:03;3.08;;;1.60;;
44774;SDS011;31340;51.402;0.016;2022-08-23T00:17:34;1.88;;;1.67;;
44774;SDS011;31340;51.402;0.016;2022-08-23T00:20:06;3.45;;;1.52;;
44774;SDS011;31340;51.402;0.016;2022-08-23T00:22:36;3.80;;;1.65;;
44774;SDS011;31340;51.402;0.016;2022-08-23T00:25:07;2.03;;;1.60;;
44774;SDS011;31340;51.402;0.016;2022-08-23T00:27:36;3.65;;;1.75;;
44774;SDS011;31340;51.402;0.016;2022-08-23T00:30:05;2.33;;;1.52;;
44774;SDS011;31340;51.402;0.016;2022-08-23T00:32:35;4.30;;;1.48;;
44774;SDS011;31340;51.402;0.016;2022-08-23T00:35:04;1.92;;;1.50;;
44774;SDS011;31340;51.402;0.016;2022-08-23T00:37:32;2.72;;;1.40;;
44774;SDS011;31340;51.402;0.016;2022-08-23T00:40:00;6.05;;;1.75;;
44774;SDS011;31340;51.402;0.016;2022-08-23T00:48:26;4.72;;;1.60;;
44774;SDS011;31340;51.402;0.016;2022-08-23T00:50:59;2.45;;;1.90;;
44774;SDS011;31340;51.402;0.016;2022-08-23T00:53:35;4.45;;;2.05;;
44774;SDS011;31340;51.402;0.016;2022-08-23T00:56:07;4.22;;;2.28;;
44774;SDS011;31340;51.402;0.016;2022-08-23T00:58:38;2.97;;;1.90;;
44774;SDS011;31340;51.402;0.016;2022-08-23T01:01:06;6.18;;;2.50;;
44774;SDS011;31340;51.402;0.016;2022-08-23T01:03:35;6.03;;;2.80;;
44774;SDS011;31340;51.402;0.016;2022-08-23T01:06:18;3.53;;;2.50;;
44774;SDS011;31340;51.402;0.016;2022-08-23T01:09:02;3.40;;;2.40;;
44774;SDS011;31340;51.402;0.016;2022-08-23T01:11:40;2.90;;;2.60;;
44774;SDS011;31340;51.402;0.016;2022-08-23T01:15:03;3.22;;;2.38;;
44774;SDS011;31340;51.402;0.016;2022-08-23T01:17:26;3.72;;;2.38;;
44774;SDS011;31340;51.402;0.016;2022-08-23T01:20:05;7.82;;;3.20;;
44774;SDS011;31340;51.402;0.016;2022-08-23T01:22:45;4.65;;;2.75;;
44774;SDS011;31340;51.402;0.016;2022-08-23T01:25:19;6.13;;;3.30;;
44774;SDS011;31340;51.402;0.016;2022-08-23T01:27:49;4.45;;;3.20;;
44774;SDS011;31340;51.402;0.016;2022-08-23T01:30:21;4.78;;;3.00;;
44774;SDS011;31340;51.402;0.016;2022-08-23T01:33:03;5.13;;;3.10;;
44774;SDS011;31340;51.402;0.016;2022-08-23T01:35:37;4.18;;;2.72;;
44774;SDS011;31340;51.402;0.016;2022-08-23T01:38:09;5.18;;;2.85;;
44774;SDS011;31340;51.402;0.016;2022-08-23T01:40:38;3.40;;;2.20;;
44774;SDS011;31340;51.402;0.016;2022-08-23T01:43:06;3.30;;;2.47;;
44774;SDS011;31340;51.402;0.016;2022-08-23T01:45:35;4.53;;;2.60;;
44774;SDS011;31340;51.402;0.016;2022-08-23T01:48:07;3.10;;;2.03;;
44774;SDS011;31340;51.402;0.016;2022-08-23T01:50:35;2.92;;;1.58;;
44774;SDS011;31340;51.402;0.016;2022-08-23T01:53:08;2.47;;;1.45;;
44774;SDS011;31340;51.402;0.016;2022-08-23T01:55:38;5.17;;;1.73;;
44774;SDS011;31340;51.402;0.016;2022-08-23T01:58:08;4.00;;;1.70;;
44774;SDS011;31340;51.402;0.016;2022-08-23T02:00:37;2.97;;;2.20;;
44774;SDS011;31340;51.402;0.016;2022-08-23T02:03:07;3.17;;;2.03;;
44774;SDS011;31340;51.402;0.016;2022-08-23T02:05:35;4.47;;;2.55;;
44774;SDS011;31340;51.402;0.016;2022-08-23T02:08:05;4.72;;;2.72;;
44774;SDS011;31340;51.402;0.016;2022-08-23T02:10:54;6.07;;;2.97;;
44774;SDS011;31340;51.402;0.016;2022-08-23T02:13:24;5.20;;;2.58;;
44774;SDS011;31340;51.402;0.016;2022-08-23T02:15:53;7.40;;;4.38;;
44774;SDS011;31340;51.402;0.016;2022-08-23T02:18:22;6.22;;;3.80;;
44774;SDS011;31340;51.402;0.016;2022-08-23T02:20:50;7.40;;;4.95;;
44774;SDS011;31340;51.402;0.016;2022-08-23T02:23:20;6.47;;;4.82;;
44774;SDS011;31340;51.402;0.016;2022-08-23T02:25:49;7.72;;;3.50;;
44774;SDS011;31340;51.402;0.016;2022-08-23T02:28:18;7.20;;;4.57;;
44774;SDS011;31340;51.402;0.016;2022-08-23T02:30:49;6.47;;;4.00;;
44774;SDS011;31340;51.402;0.016;2022-08-23T02:33:17;6.30;;;4.13;;
44774;SDS011;31340;51.402;0.016;2022-08-23T02:35:46;9.80;;;5.80;;
44774;SDS011;31340;51.402;0.016;2022-08-23T02:38:16;7.95;;;4.90;;
44774;SDS011;31340;51.402;0.016;2022-08-23T02:40:44;8.10;;;4.93;;
44774;SDS011;31340;51.402;0.016;2022-08-23T02:43:19;11.13;;;6.07;;
44774;SDS011;31340;51.402;0.016;2022-08-23T02:45:46;10.52;;;5.85;;
44774;SDS011;31340;51.402;0.016;2022-08-23T02:48:17;9.10;;;6.43;;
44774;SDS011;31340;51.402;0.016;2022-08-23T02:50:57;12.73;;;6.65;;
44774;SDS011;31340;51.402;0.016;2022-08-23T02:53:26;11.05;;;7.03;;
44774;SDS011;31340;51.402;0.016;2022-08-23T02:55:54;10.35;;;6.53;;
44774;SDS011;31340;51.402;0.016;2022-08-23T02:58:23;11.50;;;6.72;;
44774;SDS011;31340;51.402;0.016;2022-08-23T03:00:52;11.10;;;6.60;;
44774;SDS011;31340;51.402;0.016;2022-08-23T03:03:22;8.18;;;5.57;;
44774;SDS011;31340;51.402;0.016;2022-08-23T03:05:50;13.18;;;7.05;;
44774;SDS011;31340;51.402;0.016;2022-08-23T03:08:21;9.57;;;6.80;;
44774;SDS011;31340;51.402;0.016;2022-08-23T03:10:49;9.02;;;5.75;;
44774;SDS011;31340;51.402;0.016;2022-08-23T03:13:19;12.93;;;6.22;;
44774;SDS011;31340;51.402;0.016;2022-08-23T03:15:48;9.25;;;6.28;;
44774;SDS011;31340;51.402;0.016;2022-08-23T03:18:16;9.15;;;6.18;;
44774;SDS011;31340;51.402;0.016;2022-08-23T03:20:44;10.48;;;6.82;;
44774;SDS011;31340;51.402;0.016;2022-08-23T03:23:12;11.23;;;7.28;;
44774;SDS011;31340;51.402;0.016;2022-08-23T03:25:40;9.90;;;6.13;;
44774;SDS011;31340;51.402;0.016;2022-08-23T03:28:21;13.65;;;7.40;;
44774;SDS011;31340;51.402;0.016;2022-08-23T03:30:49;11.45;;;7.10;;
44774;SDS011;31340;51.402;0.016;2022-08-23T03:33:17;14.75;;;8.60;;
44774;SDS011;31340;51.402;0.016;2022-08-23T03:35:45;14.50;;;8.77;;
44774;SDS011;31340;51.402;0.016;2022-08-23T03:38:13;13.43;;;8.73;;
44774;SDS011;31340;51.402;0.016;2022-08-23T03:40:42;14.18;;;8.23;;
44774;SDS011;31340;51.402;0.016;2022-08-23T03:43:10;13.65;;;9.02;;
44774;SDS011;31340;51.402;0.016;2022-08-23T03:45:38;11.27;;;7.57;;
44774;SDS011;31340;51.402;0.016;2022-08-23T03:48:06;12.18;;;8.18;;
44774;SDS011;31340;51.402;0.016;2022-08-23T03:50:36;12.85;;;8.23;;
44774;SDS011;31340;51.402;0.016;2022-08-23T03:53:03;17.38;;;9.50;;
44774;SDS011;31340;51.402;0.016;2022-08-23T03:55:31;15.18;;;9.20;;
44774;SDS011;31340;51.402;0.016;2022-08-23T03:58:08;12.55;;;7.50;;
44774;SDS011;31340;51.402;0.016;2022-08-23T04:00:37;14.48;;;8.05;;
44774;SDS011;31340;51.402;0.016;2022-08-23T04:03:05;12.02;;;6.90;;
44774;SDS011;31340;51.402;0.016;2022-08-23T04:05:43;11.30;;;7.57;;
44774;SDS011;31340;51.402;0.016;2022-08-23T04:08:15;12.50;;;7.93;;
44774;SDS011;31340;51.402;0.016;2022-08-23T04:10:59;11.98;;;7.47;;
44774;SDS011;31340;51.402;0.016;2022-08-23T04:13:27;12.23;;;8.27;;
44774;SDS011;31340;51.402;0.016;2022-08-23T04:15:56;11.70;;;8.15;;
44774;SDS011;31340;51.402;0.016;2022-08-23T04:18:24;12.88;;;8.18;;
44774;SDS011;31340;51.402;0.016;2022-08-23T04:20:51;15.05;;;8.82;;
44774;SDS011;31340;51.402;0.016;2022-08-23T04:23:22;14.38;;;8.38;;
44774;SDS011;31340;51.402;0.016;2022-08-23T04:25:53;16.55;;;10.18;;
44774;SDS011;31340;51.402;0.016;2022-08-23T04:28:23;17.50;;;10.52;;
44774;SDS011;31340;51.402;0.016;2022-08-23T04:30:51;16.27;;;9.57;;
44774;SDS011;31340;51.402;0.016;2022-08-23T04:33:23;15.25;;;9.70;;
44774;SDS011;31340;51.402;0.016;2022-08-23T04:35:51;17.02;;;10.95;;
44774;SDS011;31340;51.402;0.016;2022-08-23T04:38:21;14.60;;;9.13;;
44774;SDS011;31340;51.402;0.016;2022-08-23T04:40:58;18.50;;;11.32;;
44774;SDS011;31340;51.402;0.016;2022-08-23T04:43:45;16.90;;;10.70;;
44774;SDS011;31340;51.402;0.016;2022-08-23T04:46:14;18.98;;;10.65;;
44774;SDS011;31340;51.402;0.016;2022-08-23T04:48:45;15.95;;;9.93;;
44774;SDS011;31340;51.402;0.016;2022-08-23T04:51:13;18.65;;;9.98;;
44774;SDS011;31340;51.402;0.016;2022-08-23T04:53:42;17.58;;;10.57;;
44774;SDS011;31340;51.402;0.016;2022-08-23T04:56:33;14.23;;;10.23;;
44774;SDS011;31340;51.402;0.016;2022-08-23T04:59:02;13.10;;;8.52;;
44774;SDS011;31340;51.402;0.016;2022-08-23T05:01:31;15.98;;;9.48;;
44774;SDS011;31340;51.402;0.016;2022-08-23T05:04:01;13.57;;;8.60;;
44774;SDS011;31340;51.402;0.016;2022-08-23T05:06:32;13.38;;;9.23;;
44774;SDS011;31340;51.402;0.016;2022-08-23T05:08:59;16.13;;;9.40;;
44774;SDS011;31340;51.402;0.016;2022-08-23T05:11:28;15.98;;;9.70;;
44774;SDS011;31340;51.402;0.016;2022-08-23T05:13:57;15.32;;;8.82;;
44774;SDS011;31340;51.402;0.016;2022-08-23T05:16:25;13.40;;;8.73;;
44774;SDS011;31340;51.402;0.016;2022-08-23T05:18:59;14.30;;;8.48;;
44774;SDS011;31340;51.402;0.016;2022-08-23T05:21:26;14.77;;;8.55;;
44774;SDS011;31340;51.402;0.016;2022-08-23T05:23:54;12.88;;;7.10;;
44774;SDS011;31340;51.402;0.016;2022-08-23T05:26:24;11.30;;;6.72;;
44774;SDS011;31340;51.402;0.016;2022-08-23T05:28:52;11.88;;;7.15;;
44774;SDS011;31340;51.402;0.016;2022-08-23T05:31:26;12.15;;;7.18;;
44774;SDS011;31340;51.402;0.016;2022-08-23T05:34:01;10.82;;;6.47;;
44774;SDS011;31340;51.402;0.016;2022-08-23T05:36:39;11.55;;;6.35;;
44774;SDS011;31340;51.402;0.016;2022-08-23T05:39:21;8.18;;;5.63;;
44774;SDS011;31340;51.402;0.016;2022-08-23T05:42:04;7.88;;;5.35;;
44774;SDS011;31340;51.402;0.016;2022-08-23T05:44:32;9.85;;;5.25;;
44774;SDS011;31340;51.402;0.016;2022-08-23T05:47:04;10.68;;;6.07;;
44774;SDS011;31340;51.402;0.016;2022-08-23T05:49:43;8.20;;;4.97;;
44774;SDS011;31340;51.402;0.016;2022-08-23T05:52:11;6.65;;;4.93;;
44774;SDS011;31340;51.402;0.016;2022-08-23T05:54:42;6.20;;;5.13;;
44774;SDS011;31340;51.402;0.016;2022-08-23T05:57:22;6.38;;;4.20;;
44774;SDS011;31340;51.402;0.016;2022-08-23T05:59:50;8.98;;;4.55;;
44774;SDS011;31340;51.402;0.016;2022-08-23T06:02:17;9.30;;;4.65;;
44774;SDS011;31340;51.402;0.016;2022-08-23T06:04:45;5.60;;;4.10;;
44774;SDS011;31340;51.402;0.016;2022-08-23T06:07:13;6.15;;;4.30;;
44774;SDS011;31340;51.402;0.016;2022-08-23T06:09:40;6.03;;;4.72;;
44774;SDS011;31340;51.402;0.016;2022-08-23T06:12:09;7.15;;;5.32;;
44774;SDS011;31340;51.402;0.016;2022-08-23T06:14:37;6.60;;;4.50;;
44774;SDS011;31340;51.402;0.016;2022-08-23T06:17:05;7.95;;;5.00;;
44774;SDS011;31340;51.402;0.016;2022-08-23T06:19:33;9.45;;;5.50;;
44774;SDS011;31340;51.402;0.016;2022-08-23T06:22:07;7.82;;;5.47;;
44774;SDS011;31340;51.402;0.016;2022-08-23T06:24:39;9.73;;;7.43;;
44774;SDS011;31340;51.402;0.016;2022-08-23T06:27:11;14.00;;;8.15;;
44774;SDS011;31340;51.402;0.016;2022-08-23T06:29:40;13.07;;;8.57;;
44774;SDS011;31340;51.402;0.016;2022-08-23T06:32:26;16.27;;;8.20;;
44774;SDS011;31340;51.402;0.016;2022-08-23T06:35:12;12.95;;;8.65;;
44774;SDS011;31340;51.402;0.016;2022-08-23T06:38:05;9.43;;;7.32;;
44774;SDS011;31340;51.402;0.016;2022-08-23T06:40:49;15.60;;;9.30;;
44774;SDS011;31340;51.402;0.016;2022-08-23T06:43:25;14.77;;;9.82;;
44774;SDS011;31340;51.402;0.016;2022-08-23T06:46:20;14.93;;;9.38;;
44774;SDS011;31340;51.402;0.016;2022-08-23T06:48:54;14.23;;;10.18;;
44774;SDS011;31340;51.402;0.016;2022-08-23T06:53:55;14.10;;;9.30;;
44774;SDS011;31340;51.402;0.016;2022-08-23T06:57:07;13.52;;;9.77;;
44774;SDS011;31340;51.402;0.016;2022-08-23T07:00:04;13.77;;;9.57;;
44774;SDS011;31340;51.402;0.016;2022-08-23T07:02:52;18.30;;;9.80;;
44774;SDS011;31340;51.402;0.016;2022-08-23T07:05:38;17.17;;;11.25;;
44774;SDS011;31340;51.402;0.016;2022-08-23T07:08:19;16.98;;;11.00;;
44774;SDS011;31340;51.402;0.016;2022-08-23T07:10:47;15.05;;;10.35;;
44774;SDS011;31340;51.402;0.016;2022-08-23T07:13:14;15.15;;;11.00;;
44774;SDS011;31340;51.402;0.016;2022-08-23T07:15:44;15.90;;;10.85;;
44774;SDS011;31340;51.402;0.016;2022-08-23T07:18:17;17.13;;;11.20;;
44774;SDS011;31340;51.402;0.016;2022-08-23T07:20:45;16.25;;;11.38;;
44774;SDS011;31340;51.402;0.016;2022-08-23T07:23:13;15.43;;;10.77;;
44774;SDS011;31340;51.402;0.016;2022-08-23T07:25:42;17.83;;;10.02;;
44774;SDS011;31340;51.402;0.016;2022-08-23T07:28:13;14.07;;;10.57;;
44774;SDS011;31340;51.402;0.016;2022-08-23T07:30:41;15.38;;;10.95;;
44774;SDS011;31340;51.402;0.016;2022-08-23T07:33:12;14.30;;;9.85;;
44774;SDS011;31340;51.402;0.016;2022-08-23T07:35:58;14.75;;;9.75;;
44774;SDS011;31340;51.402;0.016;2022-08-23T07:38:26;10.90;;;8.20;;
44774;SDS011;31340;51.402;0.016;2022-08-23T07:40:58;11.15;;;7.60;;
44774;SDS011;31340;51.402;0.016;2022-08-23T07:43:25;12.25;;;7.60;;
44774;SDS011;31340;51.402;0.016;2022-08-23T07:45:53;15.35;;;8.40;;
44774;SDS011;31340;51.402;0.016;2022-08-23T07:48:21;13.98;;;7.93;;
44774;SDS011;31340;51.402;0.016;2022-08-23T07:51:13;13.43;;;7.82;;
44774;SDS011;31340;51.402;0.016;2022-08-23T07:53:41;16.27;;;7.53;;
44774;SDS011;31340;51.402;0.016;2022-08-23T07:56:14;13.20;;;7.65;;
44774;SDS011;31340;51.402;0.016;2022-08-23T07:58:59;14.50;;;6.60;;
44774;SDS011;31340;51.402;0.016;2022-08-23T08:01:50;12.95;;;5.50;;
44774;SDS011;31340;51.402;0.016;2022-08-23T08:04:18;11.15;;;5.57;;
44774;SDS011;31340;51.402;0.016;2022-08-23T08:06:48;7.70;;;4.40;;
44774;SDS011;31340;51.402;0.016;2022-08-23T08:09:39;8.27;;;3.90;;
44774;SDS011;31340;51.402;0.016;2022-08-23T08:12:07;4.75;;;3.50;;
44774;SDS011;31340;51.402;0.016;2022-08-23T08:14:36;5.18;;;2.85;;
44774;SDS011;31340;51.402;0.016;2022-08-23T08:17:05;6.30;;;3.30;;
44774;SDS011;31340;51.402;0.016;2022-08-23T08:20:04;9.35;;;3.20;;
44774;SDS011;31340;51.402;0.016;2022-08-23T08:22:54;3.72;;;2.80;;
44774;SDS011;31340;51.402;0.016;2022-08-23T08:25:44;5.75;;;2.80;;
44774;SDS011;31340;51.402;0.016;2022-08-23T08:28:14;9.70;;;3.90;;
44774;SDS011;31340;51.402;0.016;2022-08-23T08:30:42;9.93;;;3.53;;
44774;SDS011;31340;51.402;0.016;2022-08-23T08:33:10;5.90;;;3.45;;
44774;SDS011;31340;51.402;0.016;2022-08-23T08:35:38;7.18;;;3.42;;
44774;SDS011;31340;51.402;0.016;2022-08-23T08:38:06;6.03;;;2.85;;
44774;SDS011;31340;51.402;0.016;2022-08-23T08:40:36;10.18;;;3.83;;
44774;SDS011;31340;51.402;0.016;2022-08-23T08:46:08;6.32;;;2.90;;
44774;SDS011;31340;51.402;0.016;2022-08-23T08:48:46;6.45;;;3.28;;
44774;SDS011;31340;51.402;0.016;2022-08-23T08:54:18;10.20;;;3.20;;
44774;SDS011;31340;51.402;0.016;2022-08-23T08:56:51;4.55;;;2.88;;
44774;SDS011;31340;51.402;0.016;2022-08-23T09:02:28;9.03;;;3.37;;
44774;SDS011;31340;51.402;0.016;2022-08-23T09:05:12;7.68;;;3.33;;
44774;SDS011;31340;51.402;0.016;2022-08-23T09:10:21;9.85;;;3.35;;
44774;SDS011;31340;51.402;0.016;2022-08-23T09:13:21;8.05;;;2.85;;
44774;SDS011;31340;51.402;0.016;2022-08-23T09:18:36;6.47;;;3.05;;
44774;SDS011;31340;51.402;0.016;2022-08-23T09:21:05;6.07;;;2.88;;
44774;SDS011;31340;51.402;0.016;2022-08-23T09:23:39;8.57;;;2.85;;
44774;SDS011;31340;51.402;0.016;2022-08-23T09:26:17;7.93;;;2.20;;
44774;SDS011;31340;51.402;0.016;2022-08-23T09:28:52;4.72;;;2.15;;
44774;SDS011;31340;51.402;0.016;2022-08-23T09:31:36;3.90;;;2.55;;
44774;SDS011;31340;51.402;0.016;2022-08-23T09:34:21;4.97;;;2.78;;
44774;SDS011;31340;51.402;0.016;2022-08-23T09:39:38;5.38;;;2.85;;
44774;SDS011;31340;51.402;0.016;2022-08-23T09:44:57;7.22;;;3.25;;
44774;SDS011;31340;51.402;0.016;2022-08-23T09:47:33;5.32;;;3.28;;
44774;SDS011;31340;51.402;0.016;2022-08-23T09:52:53;4.80;;;2.60;;
44774;SDS011;31340;51.402;0.016;2022-08-23T09:55:42;5.88;;;2.72;;
44774;SDS011;31340;51.402;0.016;2022-08-23T10:01:06;3.72;;;2.63;;
44774;SDS011;31340;51.402;0.016;2022-08-23T10:03:44;10.90;;;2.80;;
44774;SDS011;31340;51.402;0.016;2022-08-23T10:06:29;4.97;;;2.50;;
44774;SDS011;31340;51.402;0.016;2022-08-23T10:09:02;3.30;;;2.40;;
44774;SDS011;31340;51.402;0.016;2022-08-23T10:11:37;7.18;;;3.05;;
44774;SDS011;31340;51.402;0.016;2022-08-23T10:14:16;5.25;;;2.17;;
44774;SDS011;31340;51.402;0.016;2022-08-23T10:26:26;5.10;;;2.50;;
44774;SDS011;31340;51.402;0.016;2022-08-23T10:40:36;8.43;;;2.25;;
44774;SDS011;31340;51.402;0.016;2022-08-23T10:46:14;5.57;;;2.20;;
44774;SDS011;31340;51.402;0.016;2022-08-23T10:48:54;4.65;;;1.88;;
44774;SDS011;31340;51.402;0.016;2022-08-23T10:51:32;3.58;;;1.60;;
44774;SDS011;31340;51.402;0.016;2022-08-23T10:56:39;4.65;;;1.60;;
44774;SDS011;31340;51.402;0.016;2022-08-23T10:59:21;3.72;;;1.60;;
44774;SDS011;31340;51.402;0.016;2022-08-23T11:04:50;4.38;;;1.48;;
44774;SDS011;31340;51.402;0.016;2022-08-23T11:10:06;4.35;;;1.85;;
44774;SDS011;31340;51.402;0.016;2022-08-23T11:12:52;3.38;;;1.80;;
44774;SDS011;31340;51.402;0.016;2022-08-23T11:17:58;5.10;;;2.38;;
44774;SDS011;31340;51.402;0.016;2022-08-23T11:31:48;3.67;;;1.52;;
44774;SDS011;31340;51.402;0.016;2022-08-23T11:34:52;2.43;;;1.60;;
44774;SDS011;31340;51.402;0.016;2022-08-23T11:37:22;6.45;;;1.98;;
44774;SDS011;31340;51.402;0.016;2022-08-23T11:50:47;3.33;;;1.58;;
44774;SDS011;31340;51.402;0.016;2022-08-23T11:56:17;4.30;;;1.55;;
44774;SDS011;31340;51.402;0.016;2022-08-23T12:05:00;4.28;;;2.42;;
44774;SDS011;31340;51.402;0.016;2022-08-23T12:16:04;2.22;;;1.30;;
44774;SDS011;31340;51.402;0.016;2022-08-23T12:18:56;3.75;;;1.35;;
44774;SDS011;31340;51.402;0.016;2022-08-23T12:24:12;2.95;;;1.48;;
44774;SDS011;31340;51.402;0.016;2022-08-23T12:26:52;4.18;;;1.35;;
44774;SDS011;31340;51.402;0.016;2022-08-23T12:35:17;4.18;;;1.30;;
44774;SDS011;31340;51.402;0.016;2022-08-23T12:40:47;3.80;;;1.60;;
44774;SDS011;31340;51.402;0.016;2022-08-23T12:43:24;3.17;;;1.40;;
44774;SDS011;31340;51.402;0.016;2022-08-23T12:45:59;4.15;;;1.63;;
44774;SDS011;31340;51.402;0.016;2022-08-23T12:48:29;3.72;;;1.35;;
44774;SDS011;31340;51.402;0.016;2022-08-23T12:51:09;3.25;;;1.50;;
44774;SDS011;31340;51.402;0.016;2022-08-23T12:53:39;2.40;;;1.50;;
44774;SDS011;31340;51.402;0.016;2022-08-23T12:58:59;1.63;;;1.08;;
44774;SDS011;31340;51.402;0.016;2022-08-23T13:01:34;2.78;;;1.00;;
44774;SDS011;31340;51.402;0.016;2022-08-23T13:04:10;2.97;;;1.10;;
44774;SDS011;31340;51.402;0.016;2022-08-23T13:06:43;4.15;;;1.08;;
44774;SDS011;31340;51.402;0.016;2022-08-23T13:09:19;2.13;;;0.90;;
44774;SDS011;31340;51.402;0.016;2022-08-23T13:11:51;2.67;;;0.90;;
44774;SDS011;31340;51.402;0.016;2022-08-23T13:14:20;1.75;;;1.00;;
44774;SDS011;31340;51.402;0.016;2022-08-23T13:19:46;2.33;;;0.90;;
44774;SDS011;31340;51.402;0.016;2022-08-23T13:27:55;2.92;;;0.90;;
44774;SDS011;31340;51.402;0.016;2022-08-23T13:30:32;0.80;;;0.80;;
44774;SDS011;31340;51.402;0.016;2022-08-23T13:35:37;2.38;;;0.80;;
44774;SDS011;31340;51.402;0.016;2022-08-23T13:38:13;2.88;;;1.33;;
44774;SDS011;31340;51.402;0.016;2022-08-23T13:43:30;1.02;;;0.70;;
44774;SDS011;31340;51.402;0.016;2022-08-23T13:46:17;1.25;;;1.02;;
44774;SDS011;31340;51.402;0.016;2022-08-23T13:54:48;6.95;;;1.80;;
44774;SDS011;31340;51.402;0.016;2022-08-23T13:57:18;2.05;;;1.30;;
44774;SDS011;31340;51.402;0.016;2022-08-23T13:59:51;1.83;;;0.90;;
44774;SDS011;31340;51.402;0.016;2022-08-23T14:02:21;2.50;;;1.60;;
44774;SDS011;31340;51.402;0.016;2022-08-23T14:04:49;3.37;;;1.23;;
44774;SDS011;31340;51.402;0.016;2022-08-23T14:07:17;2.03;;;0.90;;
44774;SDS011;31340;51.402;0.016;2022-08-23T14:09:45;2.63;;;0.80;;
44774;SDS011;31340;51.402;0.016;2022-08-23T14:12:15;0.40;;;0.40;;
44774;SDS011;31340;51.402;0.016;2022-08-23T14:14:47;0.60;;;0.50;;
44774;SDS011;31340;51.402;0.016;2022-08-23T14:17:15;2.63;;;1.73;;
44774;SDS011;31340;51.402;0.016;2022-08-23T14:19:46;2.05;;;1.15;;
44774;SDS011;31340;51.402;0.016;2022-08-23T14:22:35;0.70;;;0.70;;
44774;SDS011;31340;51.402;0.016;2022-08-23T14:25:03;1.17;;;0.60;;
44774;SDS011;31340;51.402;0.016;2022-08-23T14:27:32;0.50;;;0.50;;
44774;SDS011;31340;51.402;0.016;2022-08-23T14:30:00;3.60;;;0.80;;
44774;SDS011;31340;51.402;0.016;2022-08-23T14:32:30;1.05;;;0.80;;
44774;SDS011;31340;51.402;0.016;2022-08-23T14:34:59;1.08;;;0.93;;
44774;SDS011;31340;51.402;0.016;2022-08-23T14:37:27;1.63;;;1.30;;
44774;SDS011;31340;51.402;0.016;2022-08-23T14:40:15;2.15;;;1.58;;
44774;SDS011;31340;51.402;0.016;2022-08-23T14:42:43;0.73;;;0.73;;
44774;SDS011;31340;51.402;0.016;2022-08-23T14:45:12;0.80;;;0.80;;
44774;SDS011;31340;51.402;0.016;2022-08-23T14:47:41;1.88;;;1.17;;
44774;SDS011;31340;51.402;0.016;2022-08-23T14:50:09;1.35;;;1.20;;
44774;SDS011;31340;51.402;0.016;2022-08-23T14:52:41;2.72;;;1.80;;
44774;SDS011;31340;51.402;0.016;2022-08-23T14:55:12;1.60;;;1.50;;
44774;SDS011;31340;51.402;0.016;2022-08-23T14:57:41;1.40;;;1.30;;
44774;SDS011;31340;51.402;0.016;2022-08-23T15:00:09;1.60;;;1.50;;
44774;SDS011;31340;51.402;0.016;2022-08-23T15:02:43;1.13;;;1.08;;
44774;SDS011;31340;51.402;0.016;2022-08-23T15:05:12;1.75;;;1.30;;
44774;SDS011;31340;51.402;0.016;2022-08-23T15:07:40;1.00;;;0.90;;
44774;SDS011;31340;51.402;0.016;2022-08-23T15:10:09;0.90;;;0.90;;
44774;SDS011;31340;51.402;0.016;2022-08-23T15:12:58;2.42;;;0.80;;
44774;SDS011;31340;51.402;0.016;2022-08-23T15:15:45;1.20;;;1.00;;
44774;SDS011;31340;51.402;0.016;2022-08-23T15:18:15;2.42;;;1.00;;
44774;SDS011;31340;51.402;0.016;2022-08-23T15:20:43;2.72;;;1.90;;
44774;SDS011;31340;51.402;0.016;2022-08-23T15:23:11;2.97;;;1.27;;
44774;SDS011;31340;51.402;0.016;2022-08-23T15:25:40;1.40;;;1.30;;
44774;SDS011;31340;51.402;0.016;2022-08-23T15:28:11;5.05;;;2.55;;
44774;SDS011;31340;51.402;0.016;2022-08-23T15:30:42;3.67;;;2.17;;
44774;SDS011;31340;51.402;0.016;2022-08-23T15:33:10;3.72;;;1.80;;
44774;SDS011;31340;51.402;0.016;2022-08-23T15:35:44;2.05;;;1.00;;
44774;SDS011;31340;51.402;0.016;2022-08-23T15:38:16;1.48;;;1.23;;
44774;SDS011;31340;51.402;0.016;2022-08-23T15:40:45;1.48;;;1.27;;
44774;SDS011;31340;51.402;0.016;2022-08-23T15:43:14;3.92;;;1.00;;
44774;SDS011;31340;51.402;0.016;2022-08-23T15:45:41;4.15;;;2.25;;
44774;SDS011;31340;51.402;0.016;2022-08-23T15:48:28;2.65;;;1.75;;
44774;SDS011;31340;51.402;0.016;2022-08-23T15:51:00;1.52;;;1.20;;
44774;SDS011;31340;51.402;0.016;2022-08-23T15:53:27;1.70;;;0.80;;
44774;SDS011;31340;51.402;0.016;2022-08-23T15:55:55;1.45;;;1.20;;
44774;SDS011;31340;51.402;0.016;2022-08-23T15:58:24;2.28;;;1.55;;
44774;SDS011;31340;51.402;0.016;2022-08-23T16:03:21;2.10;;;1.25;;
44774;SDS011;31340;51.402;0.016;2022-08-23T16:05:50;1.50;;;1.17;;
44774;SDS011;31340;51.402;0.016;2022-08-23T16:08:23;1.25;;;1.15;;
44774;SDS011;31340;51.402;0.016;2022-08-23T16:10:53;2.20;;;1.10;;
44774;SDS011;31340;51.402;0.016;2022-08-23T16:13:20;5.22;;;3.20;;
44774;SDS011;31340;51.402;0.016;2022-08-23T16:15:49;3.90;;;1.27;;
44774;SDS011;31340;51.402;0.016;2022-08-23T16:18:17;2.00;;;1.48;;
44774;SDS011;31340;51.402;0.016;2022-08-23T16:20:44;3.45;;;2.25;;
44774;SDS011;31340;51.402;0.016;2022-08-23T16:23:12;2.10;;;1.30;;
44774;SDS011;31340;51.402;0.016;2022-08-23T16:25:40;1.58;;;1.30;;
44774;SDS011;31340;51.402;0.016;2022-08-23T16:28:08;3.88;;;1.58;;
44774;SDS011;31340;51.402;0.016;2022-08-23T16:30:35;2.90;;;1.98;;
44774;SDS011;31340;51.402;0.016;2022-08-23T16:33:03;5.47;;;2.45;;
44774;SDS011;31340;51.402;0.016;2022-08-23T16:35:31;5.63;;;2.78;;
44774;SDS011;31340;51.402;0.016;2022-08-23T16:37:58;3.58;;;2.30;;
44774;SDS011;31340;51.402;0.016;2022-08-23T16:40:26;5.88;;;2.53;;
44774;SDS011;31340;51.402;0.016;2022-08-23T16:42:54;2.97;;;2.53;;
44774;SDS011;31340;51.402;0.016;2022-08-23T16:45:22;3.38;;;2.25;;
44774;SDS011;31340;51.402;0.016;2022-08-23T16:47:52;5.85;;;2.95;;
44774;SDS011;31340;51.402;0.016;2022-08-23T16:50:20;3.83;;;2.58;;
44774;SDS011;31340;51.402;0.016;2022-08-23T16:52:47;3.95;;;2.75;;
44774;SDS011;31340;51.402;0.016;2022-08-23T16:55:15;4.38;;;2.80;;
44774;SDS011;31340;51.402;0.016;2022-08-23T16:57:43;5.03;;;2.67;;
44774;SDS011;31340;51.402;0.016;2022-08-23T17:00:10;4.00;;;2.63;;
44774;SDS011;31340;51.402;0.016;2022-08-23T17:02:39;2.78;;;1.90;;
44774;SDS011;31340;51.402;0.016;2022-08-23T17:05:11;1.88;;;1.67;;
44774;SDS011;31340;51.402;0.016;2022-08-23T17:07:41;3.97;;;2.05;;
44774;SDS011;31340;51.402;0.016;2022-08-23T17:10:09;3.83;;;2.40;;
44774;SDS011;31340;51.402;0.016;2022-08-23T17:12:41;2.60;;;1.60;;
44774;SDS011;31340;51.402;0.016;2022-08-23T17:15:14;2.65;;;1.70;;
44774;SDS011;31340;51.402;0.016;2022-08-23T17:17:46;3.40;;;2.10;;
44774;SDS011;31340;51.402;0.016;2022-08-23T17:20:14;2.83;;;2.20;;
44774;SDS011;31340;51.402;0.016;2022-08-23T17:22:43;7.07;;;3.55;;
44774;SDS011;31340;51.402;0.016;2022-08-23T17:25:13;2.80;;;2.20;;
44774;SDS011;31340;51.402;0.016;2022-08-23T17:27:41;2.65;;;1.60;;
44774;SDS011;31340;51.402;0.016;2022-08-23T17:30:13;8.52;;;4.93;;
44774;SDS011;31340;51.402;0.016;2022-08-23T17:32:44;3.53;;;2.33;;
44774;SDS011;31340;51.402;0.016;2022-08-23T17:35:15;15.52;;;5.72;;
44774;SDS011;31340;51.402;0.016;2022-08-23T17:37:44;8.18;;;4.00;;
44774;SDS011;31340;51.402;0.016;2022-08-23T17:40:16;3.05;;;2.60;;
44774;SDS011;31340;51.402;0.016;2022-08-23T17:42:47;4.00;;;2.10;;